Terminal Aerodrome Forecast
Issued by NWS Medford, OR

Home | Current Version | Previous Version | Text Only | Print | Product List | Glossary On
Versions: 1 2 3 4 5 6 7 8 9 10 11 12 13 14 15 16 17 18 19
894
FTUS46 KMFR 191140
TAFMFR
TAF
KMFR 191140Z 1912/2012 00000KT 1/4SM FZFG VV002
     FM191900 00000KT 1SM BR OVC004
     FM192100 00000KT P6SM SCT006 BKN250
     FM200400 13007KT P6SM -RA BKN060 OVC100
     FM201000 15007KT 3SM -RA BR SCT010 BKN030 OVC050=

USA.gov is the U.S. government's official web portal to all federal, state and local government web resources and services.